Terminal Aerodrome Forecast
Issued by NWS

Home | Current Version | Previous Version | Text Only | Print | Product List | Glossary Off
Versions: 1 2 3 4 5 6 7 8 9 10 11 12 13 14 15 16 17 18 19 20 21 22 23 24

530
FTUS41 KCLE 231944 AAA
TAFFDY
TAF AMD
KFDY 231944Z 2320/2418 25015G25KT P6SM SCT008 BKN015
      TEMPO 2320/2322 SCT015 OVC040
     FM232200 26010KT P6SM SCT008 OVC010
     FM240600 33005KT P6SM SCT008 OVC010
     FM240700 34005KT P6SM OVC008
     FM241400 08007KT 3SM -RA BR OVC006=

USA.gov is the U.S. government's official web portal to all federal, state and local government web resources and services.